sensor_id;sensor_type;location;lat;lon;timestamp;P1;durP1;ratioP1;P2;durP2;ratioP2
71236;SDS011;58984;51.960;5.582;2023-06-14T00:00:11;5.72;;;3.53;;
71236;SDS011;58984;51.960;5.582;2023-06-14T00:02:40;5.25;;;3.65;;
71236;SDS011;58984;51.960;5.582;2023-06-14T00:05:09;5.47;;;3.40;;
71236;SDS011;58984;51.960;5.582;2023-06-14T00:07:40;5.70;;;3.90;;
71236;SDS011;58984;51.960;5.582;2023-06-14T00:10:10;4.38;;;3.47;;
71236;SDS011;58984;51.960;5.582;2023-06-14T00:12:36;4.82;;;3.33;;
71236;SDS011;58984;51.960;5.582;2023-06-14T00:15:03;7.95;;;3.72;;
71236;SDS011;58984;51.960;5.582;2023-06-14T00:17:28;5.82;;;3.90;;
71236;SDS011;58984;51.960;5.582;2023-06-14T00:19:58;4.45;;;3.30;;
71236;SDS011;58984;51.960;5.582;2023-06-14T00:22:24;5.93;;;4.13;;
71236;SDS011;58984;51.960;5.582;2023-06-14T00:24:50;6.30;;;3.47;;
71236;SDS011;58984;51.960;5.582;2023-06-14T00:27:16;7.57;;;3.65;;
71236;SDS011;58984;51.960;5.582;2023-06-14T00:29:42;7.30;;;3.90;;
71236;SDS011;58984;51.960;5.582;2023-06-14T00:32:08;4.70;;;3.70;;
71236;SDS011;58984;51.960;5.582;2023-06-14T00:34:33;4.47;;;3.22;;
71236;SDS011;58984;51.960;5.582;2023-06-14T00:36:59;6.57;;;3.72;;
71236;SDS011;58984;51.960;5.582;2023-06-14T00:39:25;4.60;;;3.47;;
71236;SDS011;58984;51.960;5.582;2023-06-14T00:41:50;5.97;;;3.33;;
71236;SDS011;58984;51.960;5.582;2023-06-14T00:44:16;5.00;;;3.58;;
71236;SDS011;58984;51.960;5.582;2023-06-14T00:46:42;5.47;;;3.45;;
71236;SDS011;58984;51.960;5.582;2023-06-14T00:49:10;5.95;;;3.33;;
71236;SDS011;58984;51.960;5.582;2023-06-14T00:51:37;5.05;;;3.50;;
71236;SDS011;58984;51.960;5.582;2023-06-14T00:54:04;4.22;;;3.05;;
71236;SDS011;58984;51.960;5.582;2023-06-14T00:56:30;4.72;;;3.65;;
71236;SDS011;58984;51.960;5.582;2023-06-14T00:58:56;5.20;;;3.05;;
71236;SDS011;58984;51.960;5.582;2023-06-14T01:01:22;5.13;;;3.40;;
71236;SDS011;58984;51.960;5.582;2023-06-14T01:03:49;6.10;;;3.63;;
71236;SDS011;58984;51.960;5.582;2023-06-14T01:11:32;6.68;;;3.78;;
71236;SDS011;58984;51.960;5.582;2023-06-14T01:14:02;4.35;;;3.40;;
71236;SDS011;58984;51.960;5.582;2023-06-14T01:16:29;4.25;;;3.55;;
71236;SDS011;58984;51.960;5.582;2023-06-14T01:18:56;5.05;;;3.10;;
71236;SDS011;58984;51.960;5.582;2023-06-14T01:21:23;6.32;;;3.38;;
71236;SDS011;58984;51.960;5.582;2023-06-14T01:23:50;5.00;;;3.05;;
71236;SDS011;58984;51.960;5.582;2023-06-14T01:26:18;8.05;;;3.25;;
71236;SDS011;58984;51.960;5.582;2023-06-14T01:28:45;7.88;;;3.70;;
71236;SDS011;58984;51.960;5.582;2023-06-14T01:31:14;4.15;;;3.10;;
71236;SDS011;58984;51.960;5.582;2023-06-14T01:33:42;6.13;;;3.50;;
71236;SDS011;58984;51.960;5.582;2023-06-14T01:36:09;9.35;;;3.92;;
71236;SDS011;58984;51.960;5.582;2023-06-14T01:38:35;6.13;;;3.50;;
71236;SDS011;58984;51.960;5.582;2023-06-14T01:41:02;5.47;;;3.60;;
71236;SDS011;58984;51.960;5.582;2023-06-14T01:43:29;6.45;;;3.92;;
71236;SDS011;58984;51.960;5.582;2023-06-14T01:45:56;6.47;;;3.63;;
71236;SDS011;58984;51.960;5.582;2023-06-14T01:48:22;4.88;;;3.40;;
71236;SDS011;58984;51.960;5.582;2023-06-14T01:50:48;4.93;;;3.83;;
71236;SDS011;58984;51.960;5.582;2023-06-14T01:53:15;5.45;;;3.70;;
71236;SDS011;58984;51.960;5.582;2023-06-14T01:55:41;7.15;;;3.42;;
71236;SDS011;58984;51.960;5.582;2023-06-14T01:58:08;5.63;;;3.38;;
71236;SDS011;58984;51.960;5.582;2023-06-14T02:00:34;4.80;;;3.40;;
71236;SDS011;58984;51.960;5.582;2023-06-14T02:03:00;4.53;;;3.53;;
71236;SDS011;58984;51.960;5.582;2023-06-14T02:05:27;7.88;;;3.90;;
71236;SDS011;58984;51.960;5.582;2023-06-14T02:07:52;7.38;;;3.40;;
71236;SDS011;58984;51.960;5.582;2023-06-14T02:10:18;6.55;;;3.50;;
71236;SDS011;58984;51.960;5.582;2023-06-14T02:12:44;5.90;;;3.20;;
71236;SDS011;58984;51.960;5.582;2023-06-14T02:15:10;6.72;;;3.55;;
71236;SDS011;58984;51.960;5.582;2023-06-14T02:17:42;6.43;;;3.67;;
71236;SDS011;58984;51.960;5.582;2023-06-14T02:20:08;4.93;;;3.55;;
71236;SDS011;58984;51.960;5.582;2023-06-14T02:22:34;6.20;;;3.40;;
71236;SDS011;58984;51.960;5.582;2023-06-14T02:25:00;4.75;;;3.42;;
71236;SDS011;58984;51.960;5.582;2023-06-14T02:27:26;5.80;;;3.80;;
71236;SDS011;58984;51.960;5.582;2023-06-14T02:29:51;7.45;;;3.13;;
71236;SDS011;58984;51.960;5.582;2023-06-14T02:32:17;6.07;;;3.88;;
71236;SDS011;58984;51.960;5.582;2023-06-14T02:34:42;5.38;;;3.17;;
71236;SDS011;58984;51.960;5.582;2023-06-14T02:37:08;4.85;;;3.10;;
71236;SDS011;58984;51.960;5.582;2023-06-14T02:39:34;5.47;;;3.33;;
71236;SDS011;58984;51.960;5.582;2023-06-14T02:42:00;8.75;;;3.55;;
71236;SDS011;58984;51.960;5.582;2023-06-14T02:44:26;6.03;;;3.53;;
71236;SDS011;58984;51.960;5.582;2023-06-14T02:46:52;6.88;;;3.83;;
71236;SDS011;58984;51.960;5.582;2023-06-14T02:49:21;4.72;;;3.10;;
71236;SDS011;58984;51.960;5.582;2023-06-14T02:51:47;5.63;;;3.70;;
71236;SDS011;58984;51.960;5.582;2023-06-14T02:54:13;8.30;;;3.50;;
71236;SDS011;58984;51.960;5.582;2023-06-14T02:56:39;6.78;;;3.90;;
71236;SDS011;58984;51.960;5.582;2023-06-14T02:59:05;4.85;;;3.05;;
71236;SDS011;58984;51.960;5.582;2023-06-14T03:01:32;6.20;;;3.60;;
71236;SDS011;58984;51.960;5.582;2023-06-14T03:04:06;6.60;;;3.58;;
71236;SDS011;58984;51.960;5.582;2023-06-14T03:06:35;5.00;;;3.38;;
71236;SDS011;58984;51.960;5.582;2023-06-14T03:09:01;5.53;;;3.10;;
71236;SDS011;58984;51.960;5.582;2023-06-14T03:11:29;5.95;;;3.10;;
71236;SDS011;58984;51.960;5.582;2023-06-14T03:13:56;6.88;;;3.80;;
71236;SDS011;58984;51.960;5.582;2023-06-14T03:16:22;4.63;;;3.20;;
71236;SDS011;58984;51.960;5.582;2023-06-14T03:18:49;6.85;;;3.30;;
71236;SDS011;58984;51.960;5.582;2023-06-14T03:21:17;7.65;;;3.60;;
71236;SDS011;58984;51.960;5.582;2023-06-14T03:23:45;5.20;;;3.53;;
71236;SDS011;58984;51.960;5.582;2023-06-14T03:26:11;6.47;;;3.83;;
71236;SDS011;58984;51.960;5.582;2023-06-14T03:28:43;7.10;;;3.40;;
71236;SDS011;58984;51.960;5.582;2023-06-14T03:31:12;4.88;;;3.17;;
71236;SDS011;58984;51.960;5.582;2023-06-14T03:33:38;6.63;;;3.50;;
71236;SDS011;58984;51.960;5.582;2023-06-14T03:36:04;5.15;;;3.40;;
71236;SDS011;58984;51.960;5.582;2023-06-14T03:38:30;6.97;;;3.72;;
71236;SDS011;58984;51.960;5.582;2023-06-14T03:40:56;7.68;;;3.80;;
71236;SDS011;58984;51.960;5.582;2023-06-14T03:43:22;7.28;;;3.30;;
71236;SDS011;58984;51.960;5.582;2023-06-14T03:45:47;4.07;;;3.15;;
71236;SDS011;58984;51.960;5.582;2023-06-14T03:48:13;6.93;;;3.50;;
71236;SDS011;58984;51.960;5.582;2023-06-14T03:50:38;4.18;;;3.42;;
71236;SDS011;58984;51.960;5.582;2023-06-14T03:53:04;4.82;;;3.42;;
71236;SDS011;58984;51.960;5.582;2023-06-14T03:55:30;6.03;;;3.35;;
71236;SDS011;58984;51.960;5.582;2023-06-14T03:57:56;5.38;;;3.30;;
71236;SDS011;58984;51.960;5.582;2023-06-14T04:00:22;5.35;;;3.47;;
71236;SDS011;58984;51.960;5.582;2023-06-14T04:02:48;3.67;;;3.28;;
71236;SDS011;58984;51.960;5.582;2023-06-14T04:05:14;7.93;;;3.30;;
71236;SDS011;58984;51.960;5.582;2023-06-14T04:07:41;6.30;;;3.15;;
71236;SDS011;58984;51.960;5.582;2023-06-14T04:10:10;5.57;;;3.85;;
71236;SDS011;58984;51.960;5.582;2023-06-14T04:12:37;8.52;;;3.45;;
71236;SDS011;58984;51.960;5.582;2023-06-14T04:15:03;4.95;;;3.40;;
71236;SDS011;58984;51.960;5.582;2023-06-14T04:17:31;5.25;;;3.30;;
71236;SDS011;58984;51.960;5.582;2023-06-14T04:19:58;4.72;;;3.30;;
71236;SDS011;58984;51.960;5.582;2023-06-14T04:22:25;4.55;;;3.20;;
71236;SDS011;58984;51.960;5.582;2023-06-14T04:24:53;8.52;;;3.60;;
71236;SDS011;58984;51.960;5.582;2023-06-14T04:27:21;5.70;;;3.35;;
71236;SDS011;58984;51.960;5.582;2023-06-14T04:29:53;4.95;;;3.35;;
71236;SDS011;58984;51.960;5.582;2023-06-14T04:32:24;5.45;;;3.65;;
71236;SDS011;58984;51.960;5.582;2023-06-14T04:34:51;3.92;;;3.28;;
71236;SDS011;58984;51.960;5.582;2023-06-14T04:37:19;5.20;;;3.40;;
71236;SDS011;58984;51.960;5.582;2023-06-14T04:39:46;8.25;;;3.60;;
71236;SDS011;58984;51.960;5.582;2023-06-14T04:42:12;5.97;;;3.58;;
71236;SDS011;58984;51.960;5.582;2023-06-14T04:44:39;5.70;;;3.47;;
71236;SDS011;58984;51.960;5.582;2023-06-14T04:47:08;6.70;;;3.08;;
71236;SDS011;58984;51.960;5.582;2023-06-14T04:49:37;5.22;;;3.45;;
71236;SDS011;58984;51.960;5.582;2023-06-14T04:52:05;7.57;;;3.50;;
71236;SDS011;58984;51.960;5.582;2023-06-14T04:54:31;6.13;;;3.58;;
71236;SDS011;58984;51.960;5.582;2023-06-14T04:56:58;5.53;;;3.50;;
71236;SDS011;58984;51.960;5.582;2023-06-14T04:59:24;4.03;;;2.83;;
71236;SDS011;58984;51.960;5.582;2023-06-14T05:01:50;5.50;;;3.50;;
71236;SDS011;58984;51.960;5.582;2023-06-14T05:04:17;7.22;;;3.75;;
71236;SDS011;58984;51.960;5.582;2023-06-14T05:06:46;4.13;;;2.85;;
71236;SDS011;58984;51.960;5.582;2023-06-14T05:09:14;5.18;;;3.00;;
71236;SDS011;58984;51.960;5.582;2023-06-14T05:11:41;5.13;;;3.30;;
71236;SDS011;58984;51.960;5.582;2023-06-14T05:14:10;4.93;;;3.38;;
71236;SDS011;58984;51.960;5.582;2023-06-14T05:16:36;4.07;;;2.60;;
71236;SDS011;58984;51.960;5.582;2023-06-14T05:19:02;4.57;;;2.78;;
71236;SDS011;58984;51.960;5.582;2023-06-14T05:21:29;4.55;;;3.10;;
71236;SDS011;58984;51.960;5.582;2023-06-14T05:23:55;5.40;;;3.10;;
71236;SDS011;58984;51.960;5.582;2023-06-14T05:26:21;5.43;;;3.38;;
71236;SDS011;58984;51.960;5.582;2023-06-14T05:28:48;6.15;;;3.35;;
71236;SDS011;58984;51.960;5.582;2023-06-14T05:31:15;6.43;;;3.13;;
71236;SDS011;58984;51.960;5.582;2023-06-14T05:33:40;4.72;;;3.20;;
71236;SDS011;58984;51.960;5.582;2023-06-14T05:36:06;5.80;;;3.33;;
71236;SDS011;58984;51.960;5.582;2023-06-14T05:38:32;5.57;;;3.42;;
71236;SDS011;58984;51.960;5.582;2023-06-14T05:40:57;6.35;;;2.92;;
71236;SDS011;58984;51.960;5.582;2023-06-14T05:43:24;5.93;;;3.10;;
71236;SDS011;58984;51.960;5.582;2023-06-14T05:45:50;4.05;;;2.75;;
71236;SDS011;58984;51.960;5.582;2023-06-14T05:48:15;5.25;;;3.17;;
71236;SDS011;58984;51.960;5.582;2023-06-14T05:50:41;4.90;;;3.17;;
71236;SDS011;58984;51.960;5.582;2023-06-14T05:53:06;4.82;;;3.00;;
71236;SDS011;58984;51.960;5.582;2023-06-14T05:55:32;5.80;;;3.22;;
71236;SDS011;58984;51.960;5.582;2023-06-14T05:57:58;10.20;;;3.60;;
71236;SDS011;58984;51.960;5.582;2023-06-14T06:00:23;4.13;;;2.78;;
71236;SDS011;58984;51.960;5.582;2023-06-14T06:02:49;6.35;;;3.45;;
71236;SDS011;58984;51.960;5.582;2023-06-14T06:05:14;6.45;;;3.38;;
71236;SDS011;58984;51.960;5.582;2023-06-14T06:07:40;4.85;;;2.75;;
71236;SDS011;58984;51.960;5.582;2023-06-14T06:10:06;5.35;;;3.17;;
71236;SDS011;58984;51.960;5.582;2023-06-14T06:12:32;4.13;;;3.00;;
71236;SDS011;58984;51.960;5.582;2023-06-14T06:14:58;4.93;;;3.05;;
71236;SDS011;58984;51.960;5.582;2023-06-14T06:17:25;4.38;;;3.08;;
71236;SDS011;58984;51.960;5.582;2023-06-14T06:19:51;5.13;;;3.22;;
71236;SDS011;58984;51.960;5.582;2023-06-14T06:22:16;6.95;;;3.85;;
71236;SDS011;58984;51.960;5.582;2023-06-14T06:24:42;4.80;;;3.08;;
71236;SDS011;58984;51.960;5.582;2023-06-14T06:27:08;4.15;;;3.42;;
71236;SDS011;58984;51.960;5.582;2023-06-14T06:29:34;4.88;;;3.38;;
71236;SDS011;58984;51.960;5.582;2023-06-14T06:32:00;7.22;;;3.63;;
71236;SDS011;58984;51.960;5.582;2023-06-14T06:34:26;4.82;;;3.05;;
71236;SDS011;58984;51.960;5.582;2023-06-14T06:36:52;4.57;;;3.10;;
71236;SDS011;58984;51.960;5.582;2023-06-14T06:39:17;5.03;;;3.10;;
71236;SDS011;58984;51.960;5.582;2023-06-14T06:41:43;3.28;;;2.88;;
71236;SDS011;58984;51.960;5.582;2023-06-14T06:44:08;5.55;;;3.10;;
71236;SDS011;58984;51.960;5.582;2023-06-14T06:46:37;7.30;;;3.22;;
71236;SDS011;58984;51.960;5.582;2023-06-14T06:49:06;6.25;;;3.10;;
71236;SDS011;58984;51.960;5.582;2023-06-14T06:51:31;3.58;;;3.03;;
71236;SDS011;58984;51.960;5.582;2023-06-14T06:53:57;4.38;;;3.13;;
71236;SDS011;58984;51.960;5.582;2023-06-14T06:56:23;5.18;;;3.33;;
71236;SDS011;58984;51.960;5.582;2023-06-14T06:58:49;3.58;;;3.00;;
71236;SDS011;58984;51.960;5.582;2023-06-14T07:01:16;3.67;;;2.70;;
71236;SDS011;58984;51.960;5.582;2023-06-14T07:03:42;4.55;;;2.95;;
71236;SDS011;58984;51.960;5.582;2023-06-14T07:06:08;4.45;;;3.10;;
71236;SDS011;58984;51.960;5.582;2023-06-14T07:08:33;3.65;;;3.08;;
71236;SDS011;58984;51.960;5.582;2023-06-14T07:10:59;4.45;;;2.78;;
71236;SDS011;58984;51.960;5.582;2023-06-14T07:13:25;5.28;;;3.08;;
71236;SDS011;58984;51.960;5.582;2023-06-14T07:15:53;5.38;;;3.25;;
71236;SDS011;58984;51.960;5.582;2023-06-14T07:18:20;4.18;;;2.90;;
71236;SDS011;58984;51.960;5.582;2023-06-14T07:20:45;4.72;;;3.05;;
71236;SDS011;58984;51.960;5.582;2023-06-14T07:23:12;6.70;;;3.17;;
71236;SDS011;58984;51.960;5.582;2023-06-14T07:25:38;4.65;;;2.85;;
71236;SDS011;58984;51.960;5.582;2023-06-14T07:28:04;3.85;;;2.97;;
71236;SDS011;58984;51.960;5.582;2023-06-14T07:30:30;3.20;;;2.80;;
71236;SDS011;58984;51.960;5.582;2023-06-14T07:32:56;4.35;;;3.28;;
71236;SDS011;58984;51.960;5.582;2023-06-14T07:35:21;4.30;;;3.00;;
71236;SDS011;58984;51.960;5.582;2023-06-14T07:37:47;4.25;;;3.10;;
71236;SDS011;58984;51.960;5.582;2023-06-14T07:40:13;4.88;;;3.47;;
71236;SDS011;58984;51.960;5.582;2023-06-14T07:42:39;5.05;;;3.13;;
71236;SDS011;58984;51.960;5.582;2023-06-14T07:45:04;5.47;;;3.22;;
71236;SDS011;58984;51.960;5.582;2023-06-14T07:47:31;3.60;;;3.17;;
71236;SDS011;58984;51.960;5.582;2023-06-14T07:49:57;5.60;;;3.42;;
71236;SDS011;58984;51.960;5.582;2023-06-14T07:52:22;4.25;;;3.25;;
71236;SDS011;58984;51.960;5.582;2023-06-14T07:54:48;4.65;;;3.05;;
71236;SDS011;58984;51.960;5.582;2023-06-14T07:57:14;8.10;;;3.42;;
71236;SDS011;58984;51.960;5.582;2023-06-14T07:59:39;6.97;;;3.50;;
71236;SDS011;58984;51.960;5.582;2023-06-14T08:02:05;4.65;;;3.30;;
71236;SDS011;58984;51.960;5.582;2023-06-14T08:04:31;7.28;;;3.55;;
71236;SDS011;58984;51.960;5.582;2023-06-14T08:06:58;7.72;;;3.42;;
71236;SDS011;58984;51.960;5.582;2023-06-14T08:09:24;5.00;;;2.85;;
71236;SDS011;58984;51.960;5.582;2023-06-14T08:11:50;4.13;;;3.58;;
71236;SDS011;58984;51.960;5.582;2023-06-14T08:14:15;3.78;;;3.25;;
71236;SDS011;58984;51.960;5.582;2023-06-14T08:16:41;4.60;;;3.10;;
71236;SDS011;58984;51.960;5.582;2023-06-14T08:19:07;4.28;;;2.95;;
71236;SDS011;58984;51.960;5.582;2023-06-14T08:21:32;4.20;;;2.67;;
71236;SDS011;58984;51.960;5.582;2023-06-14T08:23:58;4.68;;;2.63;;
71236;SDS011;58984;51.960;5.582;2023-06-14T08:26:25;4.97;;;2.50;;
71236;SDS011;58984;51.960;5.582;2023-06-14T08:28:54;4.40;;;3.22;;
71236;SDS011;58984;51.960;5.582;2023-06-14T08:31:20;4.63;;;2.65;;
71236;SDS011;58984;51.960;5.582;2023-06-14T08:33:45;5.65;;;3.33;;
71236;SDS011;58984;51.960;5.582;2023-06-14T08:36:11;3.55;;;2.95;;
71236;SDS011;58984;51.960;5.582;2023-06-14T08:38:37;5.65;;;2.70;;
71236;SDS011;58984;51.960;5.582;2023-06-14T08:41:04;4.65;;;2.80;;
71236;SDS011;58984;51.960;5.582;2023-06-14T08:43:33;2.90;;;2.20;;
71236;SDS011;58984;51.960;5.582;2023-06-14T08:46:03;3.28;;;2.45;;
71236;SDS011;58984;51.960;5.582;2023-06-14T08:48:31;2.95;;;2.58;;
71236;SDS011;58984;51.960;5.582;2023-06-14T08:50:59;4.45;;;2.40;;
71236;SDS011;58984;51.960;5.582;2023-06-14T08:53:32;2.67;;;2.20;;
71236;SDS011;58984;51.960;5.582;2023-06-14T08:56:02;3.35;;;2.05;;
71236;SDS011;58984;51.960;5.582;2023-06-14T08:58:29;5.87;;;2.03;;
71236;SDS011;58984;51.960;5.582;2023-06-14T09:00:58;2.67;;;1.95;;
71236;SDS011;58984;51.960;5.582;2023-06-14T09:03:27;3.05;;;2.17;;
71236;SDS011;58984;51.960;5.582;2023-06-14T09:05:56;5.20;;;2.20;;
71236;SDS011;58984;51.960;5.582;2023-06-14T09:08:23;3.03;;;1.90;;
71236;SDS011;58984;51.960;5.582;2023-06-14T09:10:50;3.55;;;1.98;;
71236;SDS011;58984;51.960;5.582;2023-06-14T09:13:16;3.45;;;2.22;;
71236;SDS011;58984;51.960;5.582;2023-06-14T09:15:42;3.03;;;2.17;;
71236;SDS011;58984;51.960;5.582;2023-06-14T09:18:08;3.08;;;2.03;;
71236;SDS011;58984;51.960;5.582;2023-06-14T09:20:34;3.58;;;2.10;;
71236;SDS011;58984;51.960;5.582;2023-06-14T09:23:00;2.83;;;2.13;;
71236;SDS011;58984;51.960;5.582;2023-06-14T09:25:26;3.20;;;2.03;;
71236;SDS011;58984;51.960;5.582;2023-06-14T09:27:52;2.30;;;2.10;;
71236;SDS011;58984;51.960;5.582;2023-06-14T09:30:19;5.40;;;2.28;;
71236;SDS011;58984;51.960;5.582;2023-06-14T09:32:45;3.55;;;2.15;;
71236;SDS011;58984;51.960;5.582;2023-06-14T09:35:11;4.13;;;2.28;;
71236;SDS011;58984;51.960;5.582;2023-06-14T09:37:37;2.35;;;1.95;;
71236;SDS011;58984;51.960;5.582;2023-06-14T09:40:03;3.33;;;1.92;;
71236;SDS011;58984;51.960;5.582;2023-06-14T09:42:30;4.28;;;2.20;;
71236;SDS011;58984;51.960;5.582;2023-06-14T09:44:56;3.75;;;2.10;;
71236;SDS011;58984;51.960;5.582;2023-06-14T09:47:25;2.10;;;1.90;;
71236;SDS011;58984;51.960;5.582;2023-06-14T09:49:50;3.45;;;2.22;;
71236;SDS011;58984;51.960;5.582;2023-06-14T09:52:19;4.55;;;2.00;;
71236;SDS011;58984;51.960;5.582;2023-06-14T09:54:46;3.15;;;2.00;;
71236;SDS011;58984;51.960;5.582;2023-06-14T09:57:14;3.63;;;2.10;;
71236;SDS011;58984;51.960;5.582;2023-06-14T09:59:42;2.63;;;2.08;;
71236;SDS011;58984;51.960;5.582;2023-06-14T10:02:34;4.32;;;2.25;;
71236;SDS011;58984;51.960;5.582;2023-06-14T10:05:08;2.88;;;1.75;;
71236;SDS011;58984;51.960;5.582;2023-06-14T10:07:44;2.25;;;1.90;;
71236;SDS011;58984;51.960;5.582;2023-06-14T10:10:17;2.67;;;2.13;;
71236;SDS011;58984;51.960;5.582;2023-06-14T10:12:43;2.85;;;1.63;;
71236;SDS011;58984;51.960;5.582;2023-06-14T10:15:09;2.70;;;1.83;;
71236;SDS011;58984;51.960;5.582;2023-06-14T10:17:47;3.22;;;2.00;;
71236;SDS011;58984;51.960;5.582;2023-06-14T10:23:17;3.45;;;1.80;;
71236;SDS011;58984;51.960;5.582;2023-06-14T10:25:50;2.75;;;1.95;;
71236;SDS011;58984;51.960;5.582;2023-06-14T10:28:21;2.20;;;1.60;;
71236;SDS011;58984;51.960;5.582;2023-06-14T10:31:06;3.33;;;1.75;;
71236;SDS011;58984;51.960;5.582;2023-06-14T10:33:33;1.95;;;1.77;;
71236;SDS011;58984;51.960;5.582;2023-06-14T10:36:30;3.75;;;1.80;;
71236;SDS011;58984;51.960;5.582;2023-06-14T10:41:26;1.83;;;1.50;;
71236;SDS011;58984;51.960;5.582;2023-06-14T10:43:53;1.95;;;1.70;;
71236;SDS011;58984;51.960;5.582;2023-06-14T10:46:35;2.70;;;1.92;;
71236;SDS011;58984;51.960;5.582;2023-06-14T10:49:01;2.78;;;1.80;;
71236;SDS011;58984;51.960;5.582;2023-06-14T10:51:29;4.05;;;1.80;;
71236;SDS011;58984;51.960;5.582;2023-06-14T10:53:55;2.60;;;1.70;;
71236;SDS011;58984;51.960;5.582;2023-06-14T10:58:54;4.43;;;2.00;;
71236;SDS011;58984;51.960;5.582;2023-06-14T11:01:23;3.45;;;2.00;;
71236;SDS011;58984;51.960;5.582;2023-06-14T11:04:00;2.78;;;1.70;;
71236;SDS011;58984;51.960;5.582;2023-06-14T11:06:54;1.73;;;1.50;;
71236;SDS011;58984;51.960;5.582;2023-06-14T11:12:22;3.33;;;1.80;;
71236;SDS011;58984;51.960;5.582;2023-06-14T11:14:50;4.25;;;1.85;;
71236;SDS011;58984;51.960;5.582;2023-06-14T11:17:17;2.22;;;1.95;;
71236;SDS011;58984;51.960;5.582;2023-06-14T11:19:43;1.95;;;1.63;;
71236;SDS011;58984;51.960;5.582;2023-06-14T11:22:09;4.05;;;2.20;;
71236;SDS011;58984;51.960;5.582;2023-06-14T11:24:35;3.40;;;1.75;;
71236;SDS011;58984;51.960;5.582;2023-06-14T11:27:01;4.32;;;2.20;;
71236;SDS011;58984;51.960;5.582;2023-06-14T11:29:26;1.98;;;1.67;;
71236;SDS011;58984;51.960;5.582;2023-06-14T11:31:54;1.80;;;1.60;;
71236;SDS011;58984;51.960;5.582;2023-06-14T11:34:20;2.65;;;1.58;;
71236;SDS011;58984;51.960;5.582;2023-06-14T11:36:45;2.40;;;1.65;;
71236;SDS011;58984;51.960;5.582;2023-06-14T11:39:12;3.53;;;2.10;;
71236;SDS011;58984;51.960;5.582;2023-06-14T11:44:08;2.72;;;1.77;;
71236;SDS011;58984;51.960;5.582;2023-06-14T11:46:34;2.20;;;1.60;;
71236;SDS011;58984;51.960;5.582;2023-06-14T11:49:01;2.10;;;1.70;;
71236;SDS011;58984;51.960;5.582;2023-06-14T11:51:32;2.25;;;1.80;;
71236;SDS011;58984;51.960;5.582;2023-06-14T11:53:58;2.28;;;1.67;;
71236;SDS011;58984;51.960;5.582;2023-06-14T11:56:25;2.35;;;1.58;;
71236;SDS011;58984;51.960;5.582;2023-06-14T11:58:52;3.58;;;1.98;;
71236;SDS011;58984;51.960;5.582;2023-06-14T12:01:21;2.83;;;1.70;;
71236;SDS011;58984;51.960;5.582;2023-06-14T12:03:47;3.10;;;1.80;;
71236;SDS011;58984;51.960;5.582;2023-06-14T12:06:16;2.60;;;2.08;;
71236;SDS011;58984;51.960;5.582;2023-06-14T12:08:50;2.10;;;1.90;;
71236;SDS011;58984;51.960;5.582;2023-06-14T12:11:15;3.58;;;2.20;;
71236;SDS011;58984;51.960;5.582;2023-06-14T12:13:42;3.10;;;1.88;;
71236;SDS011;58984;51.960;5.582;2023-06-14T12:16:08;4.57;;;2.25;;
71236;SDS011;58984;51.960;5.582;2023-06-14T12:18:36;3.13;;;2.30;;
71236;SDS011;58984;51.960;5.582;2023-06-14T12:21:03;3.35;;;2.00;;
71236;SDS011;58984;51.960;5.582;2023-06-14T12:26:07;2.15;;;1.88;;
71236;SDS011;58984;51.960;5.582;2023-06-14T12:28:33;3.65;;;2.05;;
71236;SDS011;58984;51.960;5.582;2023-06-14T12:30:58;2.13;;;1.80;;
71236;SDS011;58984;51.960;5.582;2023-06-14T12:33:24;3.08;;;1.80;;
71236;SDS011;58984;51.960;5.582;2023-06-14T12:35:50;2.40;;;1.80;;
71236;SDS011;58984;51.960;5.582;2023-06-14T12:38:16;5.53;;;2.08;;
71236;SDS011;58984;51.960;5.582;2023-06-14T12:40:42;5.00;;;1.80;;
71236;SDS011;58984;51.960;5.582;2023-06-14T12:43:07;3.25;;;2.03;;
71236;SDS011;58984;51.960;5.582;2023-06-14T12:45:33;2.30;;;1.85;;
71236;SDS011;58984;51.960;5.582;2023-06-14T12:47:58;4.43;;;1.95;;
71236;SDS011;58984;51.960;5.582;2023-06-14T12:50:24;3.47;;;2.20;;
71236;SDS011;58984;51.960;5.582;2023-06-14T12:52:50;3.10;;;1.80;;
71236;SDS011;58984;51.960;5.582;2023-06-14T12:55:15;3.22;;;1.88;;
71236;SDS011;58984;51.960;5.582;2023-06-14T12:57:41;3.50;;;1.90;;
71236;SDS011;58984;51.960;5.582;2023-06-14T13:00:07;2.97;;;1.90;;
71236;SDS011;58984;51.960;5.582;2023-06-14T13:02:33;3.38;;;1.50;;
71236;SDS011;58984;51.960;5.582;2023-06-14T13:04:58;3.72;;;2.08;;
71236;SDS011;58984;51.960;5.582;2023-06-14T13:07:25;4.05;;;1.70;;
71236;SDS011;58984;51.960;5.582;2023-06-14T13:09:50;3.08;;;1.80;;
71236;SDS011;58984;51.960;5.582;2023-06-14T13:12:16;2.47;;;1.75;;
71236;SDS011;58984;51.960;5.582;2023-06-14T13:14:42;2.85;;;1.80;;
71236;SDS011;58984;51.960;5.582;2023-06-14T13:17:08;3.95;;;1.80;;
71236;SDS011;58984;51.960;5.582;2023-06-14T13:19:34;1.60;;;1.50;;
71236;SDS011;58984;51.960;5.582;2023-06-14T13:22:00;3.20;;;1.75;;
71236;SDS011;58984;51.960;5.582;2023-06-14T13:24:26;1.77;;;1.67;;
71236;SDS011;58984;51.960;5.582;2023-06-14T13:26:51;2.15;;;1.45;;
71236;SDS011;58984;51.960;5.582;2023-06-14T13:29:17;2.75;;;1.83;;
71236;SDS011;58984;51.960;5.582;2023-06-14T13:31:42;1.88;;;1.67;;
71236;SDS011;58984;51.960;5.582;2023-06-14T13:34:08;3.63;;;1.80;;
71236;SDS011;58984;51.960;5.582;2023-06-14T13:36:34;2.78;;;1.85;;
71236;SDS011;58984;51.960;5.582;2023-06-14T13:38:59;2.70;;;1.70;;
71236;SDS011;58984;51.960;5.582;2023-06-14T13:41:25;1.77;;;1.67;;
71236;SDS011;58984;51.960;5.582;2023-06-14T13:43:58;1.80;;;1.63;;
71236;SDS011;58984;51.960;5.582;2023-06-14T13:46:24;3.28;;;1.95;;
71236;SDS011;58984;51.960;5.582;2023-06-14T13:48:50;2.42;;;1.70;;
71236;SDS011;58984;51.960;5.582;2023-06-14T13:51:16;5.78;;;2.20;;
71236;SDS011;58984;51.960;5.582;2023-06-14T13:53:45;3.20;;;1.88;;
71236;SDS011;58984;51.960;5.582;2023-06-14T13:56:15;1.63;;;1.50;;
71236;SDS011;58984;51.960;5.582;2023-06-14T13:58:41;2.60;;;1.65;;
71236;SDS011;58984;51.960;5.582;2023-06-14T14:01:07;4.30;;;1.70;;
71236;SDS011;58984;51.960;5.582;2023-06-14T14:03:33;2.33;;;1.88;;
71236;SDS011;58984;51.960;5.582;2023-06-14T14:06:00;2.30;;;1.60;;
71236;SDS011;58984;51.960;5.582;2023-06-14T14:08:27;3.38;;;1.70;;
71236;SDS011;58984;51.960;5.582;2023-06-14T14:10:53;12.57;;;2.83;;
71236;SDS011;58984;51.960;5.582;2023-06-14T14:13:18;12.20;;;2.80;;
71236;SDS011;58984;51.960;5.582;2023-06-14T14:15:44;12.00;;;2.70;;
71236;SDS011;58984;51.960;5.582;2023-06-14T14:18:09;9.30;;;2.42;;
71236;SDS011;58984;51.960;5.582;2023-06-14T14:20:35;4.30;;;2.10;;
71236;SDS011;58984;51.960;5.582;2023-06-14T14:23:00;6.43;;;2.05;;
71236;SDS011;58984;51.960;5.582;2023-06-14T14:25:27;8.45;;;2.50;;
71236;SDS011;58984;51.960;5.582;2023-06-14T14:27:52;8.13;;;2.13;;
71236;SDS011;58984;51.960;5.582;2023-06-14T14:30:18;5.32;;;1.73;;
71236;SDS011;58984;51.960;5.582;2023-06-14T14:32:48;2.53;;;1.70;;
71236;SDS011;58984;51.960;5.582;2023-06-14T14:35:17;4.18;;;1.75;;
71236;SDS011;58984;51.960;5.582;2023-06-14T14:37:43;3.55;;;1.27;;
71236;SDS011;58984;51.960;5.582;2023-06-14T14:40:09;2.55;;;1.73;;
71236;SDS011;58984;51.960;5.582;2023-06-14T14:42:36;3.53;;;1.70;;
71236;SDS011;58984;51.960;5.582;2023-06-14T14:45:02;5.10;;;1.73;;
71236;SDS011;58984;51.960;5.582;2023-06-14T14:47:28;3.92;;;1.67;;
71236;SDS011;58984;51.960;5.582;2023-06-14T14:49:54;2.40;;;1.50;;
71236;SDS011;58984;51.960;5.582;2023-06-14T14:52:20;3.60;;;1.73;;
71236;SDS011;58984;51.960;5.582;2023-06-14T14:54:45;5.68;;;1.63;;
71236;SDS011;58984;51.960;5.582;2023-06-14T14:57:11;2.63;;;1.45;;
71236;SDS011;58984;51.960;5.582;2023-06-14T14:59:36;2.88;;;1.45;;
71236;SDS011;58984;51.960;5.582;2023-06-14T15:02:02;4.15;;;1.85;;
71236;SDS011;58984;51.960;5.582;2023-06-14T15:04:28;1.65;;;1.10;;
71236;SDS011;58984;51.960;5.582;2023-06-14T15:06:53;2.38;;;1.50;;